createdAt,value
2019-02-14T00:00:53.893Z,6.08
2019-02-14T00:03:26.421Z,8.10
2019-02-14T00:05:58.805Z,4.20
2019-02-14T00:08:31.241Z,7.07
2019-02-14T00:11:03.998Z,5.50
2019-02-14T00:13:36.561Z,5.35
2019-02-14T00:16:09.016Z,4.37
2019-02-14T00:18:41.508Z,4.45
2019-02-14T00:21:13.912Z,4.92
2019-02-14T00:23:46.426Z,4.83
2019-02-14T00:26:18.922Z,4.55
2019-02-14T00:28:51.455Z,4.83
2019-02-14T00:31:24.292Z,6.08
2019-02-14T00:33:56.783Z,6.70
2019-02-14T00:36:29.611Z,3.65
2019-02-14T00:39:43.918Z,5.15
2019-02-14T00:43:02.476Z,5.20
2019-02-14T00:46:23.977Z,5.03
2019-02-14T00:49:23.895Z,2.73
2019-02-14T00:52:28.270Z,6.57
2019-02-14T00:55:31.891Z,4.80
2019-02-14T00:58:36.679Z,5.22
2019-02-14T01:01:51.472Z,5.20
2019-02-14T01:04:57.037Z,4.35
2019-02-14T01:07:57.075Z,5.92
2019-02-14T01:11:07.423Z,2.87
2019-02-14T01:18:10.825Z,3.40
2019-02-14T01:20:43.206Z,4.42
2019-02-14T01:23:15.370Z,6.33
2019-02-14T01:25:47.871Z,4.27
2019-02-14T01:28:20.328Z,5.90
2019-02-14T01:30:53.092Z,3.08
2019-02-14T01:33:25.533Z,6.60
2019-02-14T01:35:57.937Z,4.72
2019-02-14T01:38:30.277Z,4.50
2019-02-14T01:41:02.367Z,8.10
2019-02-14T01:43:34.526Z,5.10
2019-02-14T01:46:06.992Z,5.15
2019-02-14T01:48:39.319Z,8.33
2019-02-14T01:51:12.220Z,3.23
2019-02-14T01:53:46.453Z,6.20
2019-02-14T01:56:21.425Z,5.17
2019-02-14T01:58:53.515Z,2.70
2019-02-14T02:01:26.830Z,6.73
2019-02-14T02:03:58.903Z,7.17
2019-02-14T02:06:31.014Z,3.40
2019-02-14T02:09:04.750Z,5.70
2019-02-14T02:11:36.861Z,5.20
2019-02-14T02:14:08.941Z,5.10
2019-02-14T02:16:41.032Z,4.67
2019-02-14T02:19:13.383Z,4.62
2019-02-14T02:21:45.758Z,5.40
2019-02-14T02:24:18.104Z,5.28
2019-02-14T02:26:50.657Z,4.55
2019-02-14T02:29:23.420Z,6.10
2019-02-14T02:31:55.905Z,5.95
2019-02-14T02:34:28.602Z,6.40
2019-02-14T02:37:00.967Z,4.42
2019-02-14T02:39:33.883Z,4.73
2019-02-14T02:44:36.882Z,6.40
2019-02-14T02:47:09.479Z,4.53
2019-02-14T02:49:41.811Z,4.03
2019-02-14T02:52:13.935Z,6.03
2019-02-14T02:54:46.292Z,6.60
2019-02-14T02:57:18.730Z,3.90
2019-02-14T02:59:51.087Z,5.25
2019-02-14T03:02:23.460Z,4.80
2019-02-14T03:04:55.848Z,3.45
2019-02-14T03:07:28.690Z,6.95
2019-02-14T03:10:01.060Z,2.72
2019-02-14T03:12:33.149Z,11.27
2019-02-14T03:15:06.038Z,7.20
2019-02-14T03:17:38.254Z,6.47
2019-02-14T03:20:12.196Z,5.40
2019-02-14T03:22:44.284Z,3.00
2019-02-14T03:25:17.930Z,6.20
2019-02-14T03:27:50.026Z,3.07
2019-02-14T03:30:22.098Z,3.03
2019-02-14T03:32:54.226Z,3.93
2019-02-14T03:35:26.579Z,4.97
2019-02-14T03:37:58.935Z,5.95
2019-02-14T03:40:31.018Z,6.27
2019-02-14T03:43:03.581Z,6.27
2019-02-14T03:45:35.913Z,7.45
2019-02-14T03:48:08.106Z,4.70
2019-02-14T03:50:40.585Z,7.45
2019-02-14T03:53:12.955Z,3.50
2019-02-14T03:55:45.027Z,5.13
2019-02-14T03:58:17.514Z,5.05
2019-02-14T04:00:49.868Z,7.65
2019-02-14T04:03:22.026Z,4.47
2019-02-14T04:05:54.107Z,3.73
2019-02-14T04:08:26.580Z,3.43
2019-02-14T04:10:59.034Z,5.62
2019-02-14T04:13:31.777Z,7.42
2019-02-14T04:16:04.587Z,5.25
2019-02-14T04:18:37.217Z,6.75
2019-02-14T04:21:09.952Z,5.70
2019-02-14T04:23:42.767Z,5.97
2019-02-14T04:26:15.113Z,3.95
2019-02-14T04:28:47.577Z,5.97
2019-02-14T04:31:19.952Z,3.40
2019-02-14T04:33:53.075Z,4.80
2019-02-14T04:36:25.141Z,4.30
2019-02-14T04:38:57.232Z,4.17
2019-02-14T04:41:29.316Z,6.13
2019-02-14T04:44:01.785Z,5.37
2019-02-14T04:46:34.484Z,8.03
2019-02-14T04:49:06.932Z,4.95
2019-02-14T04:51:39.592Z,4.70
2019-02-14T04:54:12.013Z,4.83
2019-02-14T04:56:44.425Z,4.78
2019-02-14T04:59:16.906Z,6.83
2019-02-14T05:01:49.418Z,5.72
2019-02-14T05:04:22.088Z,5.47
2019-02-14T05:06:54.429Z,5.72
2019-02-14T05:09:26.999Z,4.55
2019-02-14T05:11:59.738Z,7.55
2019-02-14T05:14:32.112Z,5.42
2019-02-14T05:17:04.466Z,4.40
2019-02-14T05:19:36.551Z,7.27
2019-02-14T05:22:08.650Z,4.33
2019-02-14T05:24:41.212Z,5.00
2019-02-14T05:27:13.555Z,5.12
2019-02-14T05:29:45.669Z,6.27
2019-02-14T05:32:17.817Z,4.53
2019-02-14T05:34:50.540Z,5.80
2019-02-14T05:37:22.900Z,3.92
2019-02-14T05:39:55.561Z,5.17
2019-02-14T05:42:27.903Z,8.48
2019-02-14T05:45:00.460Z,3.97
2019-02-14T05:47:32.800Z,4.45
2019-02-14T05:50:05.726Z,7.20
2019-02-14T05:52:38.263Z,6.28
2019-02-14T05:55:11.509Z,5.28
2019-02-14T06:00:15.636Z,5.95
2019-02-14T06:02:47.748Z,5.07
2019-02-14T06:05:20.041Z,5.73
2019-02-14T06:07:52.886Z,6.28
2019-02-14T06:10:25.353Z,5.12
2019-02-14T06:12:58.413Z,7.00
2019-02-14T06:15:30.932Z,7.73
2019-02-14T06:18:03.470Z,6.40
2019-02-14T06:20:35.845Z,5.78
2019-02-14T06:23:08.808Z,6.37
2019-02-14T06:25:41.026Z,4.22
2019-02-14T06:28:13.757Z,6.58
2019-02-14T06:30:46.516Z,6.72
2019-02-14T06:33:18.959Z,9.28
2019-02-14T06:35:51.323Z,9.38
2019-02-14T06:38:23.799Z,4.55
2019-02-14T06:40:56.568Z,5.92
2019-02-14T06:43:28.919Z,4.00
2019-02-14T06:46:01.330Z,6.60
2019-02-14T06:48:34.137Z,4.60
2019-02-14T06:51:06.569Z,10.28
2019-02-14T06:53:38.933Z,10.08
2019-02-14T06:56:11.114Z,7.83
2019-02-14T06:58:43.226Z,8.97
2019-02-14T07:01:15.744Z,6.47
2019-02-14T07:03:48.126Z,7.72
2019-02-14T07:06:20.501Z,7.53
2019-02-14T07:08:52.892Z,6.07
2019-02-14T07:11:25.272Z,7.53
2019-02-14T07:13:57.738Z,10.23
2019-02-14T07:16:30.547Z,5.87
2019-02-14T07:19:02.910Z,8.18
2019-02-14T07:21:35.045Z,13.80
2019-02-14T07:24:07.228Z,9.77
2019-02-14T07:26:39.623Z,11.22
2019-02-14T07:29:12.058Z,6.55
2019-02-14T07:31:44.555Z,7.80
2019-02-14T07:34:17.648Z,6.17
2019-02-14T07:36:49.734Z,8.35
2019-02-14T07:39:22.132Z,4.83
2019-02-14T07:41:54.875Z,6.87
2019-02-14T07:44:27.244Z,4.97
2019-02-14T07:46:59.624Z,8.10
2019-02-14T07:49:31.984Z,5.85
2019-02-14T07:52:04.359Z,8.53
2019-02-14T07:54:36.819Z,7.72
2019-02-14T07:57:09.168Z,7.10
2019-02-14T07:59:41.990Z,9.48
2019-02-14T08:02:14.342Z,8.00
2019-02-14T08:04:46.427Z,9.57
2019-02-14T08:07:18.504Z,7.53
2019-02-14T08:09:50.652Z,3.90
2019-02-14T08:12:23.008Z,6.55
2019-02-14T08:14:55.383Z,6.08
2019-02-14T08:17:27.734Z,8.75
2019-02-14T08:19:59.845Z,5.17
2019-02-14T08:22:31.903Z,7.37
2019-02-14T08:25:04.415Z,10.97
2019-02-14T08:27:36.772Z,6.22
2019-02-14T08:30:12.659Z,10.75
2019-02-14T08:32:44.726Z,5.77
2019-02-14T08:35:16.808Z,7.93
2019-02-14T08:37:48.859Z,5.60
2019-02-14T08:40:24.229Z,9.00
2019-02-14T08:42:56.300Z,6.70
2019-02-14T08:45:28.394Z,9.07
2019-02-14T08:48:00.444Z,5.80
2019-02-14T08:50:32.517Z,8.70
2019-02-14T08:53:04.572Z,7.60
2019-02-14T08:55:36.649Z,7.90
2019-02-14T08:58:09.053Z,10.30
2019-02-14T09:00:41.497Z,9.05
2019-02-14T09:03:13.877Z,10.18
2019-02-14T09:05:46.056Z,13.03
2019-02-14T09:08:18.391Z,9.25
2019-02-14T09:10:50.531Z,10.17
2019-02-14T09:13:22.933Z,9.53
2019-02-14T09:15:55.302Z,8.33
2019-02-14T09:18:27.353Z,7.57
2019-02-14T09:20:59.444Z,8.87
2019-02-14T09:23:31.970Z,12.10
2019-02-14T09:26:04.357Z,12.18
2019-02-14T09:28:36.539Z,11.23
2019-02-14T09:31:08.616Z,11.73
2019-02-14T09:33:40.711Z,15.13
2019-02-14T09:36:12.807Z,13.83
2019-02-14T09:38:45.056Z,15.03
2019-02-14T09:41:17.636Z,12.33
2019-02-14T09:43:49.977Z,10.68
2019-02-14T09:46:22.103Z,10.67
2019-02-14T09:48:54.191Z,14.43
2019-02-14T09:51:26.290Z,13.27
2019-02-14T09:53:58.465Z,14.40
2019-02-14T09:56:30.910Z,12.27
2019-02-14T09:59:03.275Z,14.93
2019-02-14T10:01:35.669Z,14.63
2019-02-14T10:04:08.046Z,12.68
2019-02-14T10:06:40.165Z,6.70
2019-02-14T10:09:12.262Z,14.83
2019-02-14T10:11:44.369Z,13.53
2019-02-14T10:14:16.398Z,13.07
2019-02-14T10:16:48.488Z,18.03
2019-02-14T10:19:20.545Z,15.10
2019-02-14T10:21:52.766Z,11.93
2019-02-14T10:24:25.099Z,11.95
2019-02-14T10:26:57.173Z,13.20
2019-02-14T10:29:29.571Z,13.63
2019-02-14T10:32:01.933Z,11.68
2019-02-14T10:34:34.002Z,17.60
2019-02-14T10:37:06.647Z,8.40
2019-02-14T10:39:38.703Z,14.77
2019-02-14T10:42:11.369Z,12.45
2019-02-14T10:44:43.450Z,14.17
2019-02-14T10:47:15.866Z,17.27
2019-02-14T10:49:48.198Z,10.03
2019-02-14T10:52:20.280Z,13.23
2019-02-14T10:54:52.752Z,14.60
2019-02-14T10:57:25.203Z,14.83
2019-02-14T10:59:58.403Z,11.83
2019-02-14T11:02:31.030Z,14.63
2019-02-14T11:05:03.357Z,18.73
2019-02-14T11:07:36.063Z,15.60
2019-02-14T11:10:09.576Z,14.25
2019-02-14T11:12:42.672Z,19.62
2019-02-14T11:15:16.589Z,17.30
2019-02-14T11:17:49.360Z,15.28
2019-02-14T11:20:21.501Z,15.03
2019-02-14T11:22:53.599Z,14.33
2019-02-14T11:25:29.937Z,16.77
2019-02-14T11:28:02.601Z,13.18
2019-02-14T11:30:35.378Z,14.87
2019-02-14T11:33:07.736Z,17.07
2019-02-14T11:35:39.795Z,14.90
2019-02-14T11:38:11.901Z,15.73
2019-02-14T11:40:44.060Z,26.83
2019-02-14T11:43:16.151Z,19.13
2019-02-14T11:45:48.220Z,21.43
2019-02-14T11:48:20.297Z,15.30
2019-02-14T11:50:52.364Z,18.00
2019-02-14T11:53:24.462Z,17.47
2019-02-14T11:55:57.139Z,13.43
2019-02-14T11:58:29.552Z,17.60
2019-02-14T12:01:01.882Z,15.78
2019-02-14T12:03:34.616Z,18.45
2019-02-14T12:06:06.958Z,19.73
2019-02-14T12:08:39.325Z,18.90
2019-02-14T12:11:12.365Z,19.48
2019-02-14T12:13:44.625Z,18.77
2019-02-14T12:16:16.981Z,14.68
2019-02-14T12:18:49.154Z,15.27
2019-02-14T12:21:21.528Z,15.98
2019-02-14T12:23:53.909Z,14.38
2019-02-14T12:26:26.246Z,14.80
2019-02-14T12:28:58.356Z,18.43
2019-02-14T12:31:30.428Z,14.87
2019-02-14T12:34:03.448Z,15.60
2019-02-14T12:36:36.120Z,13.03
2019-02-14T12:39:11.533Z,17.25
2019-02-14T12:41:43.917Z,14.45
2019-02-14T12:44:17.614Z,14.00
2019-02-14T12:46:50.651Z,14.90
2019-02-14T12:49:29.031Z,12.45
2019-02-14T12:52:10.685Z,16.40
2019-02-14T12:54:55.487Z,13.43
2019-02-14T12:57:28.309Z,11.45
2019-02-14T13:00:00.668Z,16.07
2019-02-14T13:02:33.029Z,18.02
2019-02-14T13:05:05.751Z,10.82
2019-02-14T13:07:38.268Z,12.50
2019-02-14T13:10:11.723Z,10.43
2019-02-14T13:12:44.464Z,11.80
2019-02-14T13:15:19.664Z,12.73
2019-02-14T13:17:52.333Z,12.23
2019-02-14T13:20:25.065Z,11.65
2019-02-14T13:23:09.135Z,14.53
2019-02-14T13:25:51.668Z,13.48
2019-02-14T13:28:27.043Z,11.10
2019-02-14T13:31:13.329Z,14.23
2019-02-14T13:33:46.446Z,12.33
2019-02-14T13:36:18.933Z,12.37
2019-02-14T13:38:51.624Z,13.18
2019-02-14T13:41:30.933Z,10.25
2019-02-14T13:43:58.732Z,15.88
2019-02-14T13:46:31.123Z,13.72
2019-02-14T13:49:03.895Z,14.90
2019-02-14T13:51:36.255Z,10.28
2019-02-14T13:54:08.610Z,11.63
2019-02-14T13:56:41.020Z,14.63
2019-02-14T13:59:13.524Z,14.23
2019-02-14T14:01:45.940Z,11.18
2019-02-14T14:04:18.402Z,12.15
2019-02-14T14:06:50.787Z,13.32
2019-02-14T14:09:23.142Z,13.50
2019-02-14T14:11:55.523Z,13.05
2019-02-14T14:14:28.258Z,13.55
2019-02-14T14:17:00.977Z,11.28
2019-02-14T14:19:33.358Z,11.35
2019-02-14T14:22:05.744Z,14.47
2019-02-14T14:24:38.135Z,12.23
2019-02-14T14:27:10.644Z,10.40
2019-02-14T14:29:43.000Z,11.08
2019-02-14T14:32:15.439Z,12.55
2019-02-14T14:34:47.844Z,14.20
2019-02-14T14:37:20.215Z,15.43
2019-02-14T14:39:52.575Z,13.95
2019-02-14T14:42:42.733Z,17.25
2019-02-14T14:45:19.085Z,11.97
2019-02-14T14:47:52.054Z,13.55
2019-02-14T14:50:24.421Z,10.05
2019-02-14T14:52:57.051Z,11.88
2019-02-14T14:55:29.437Z,11.45
2019-02-14T14:58:01.869Z,11.90
2019-02-14T15:00:34.289Z,10.93
2019-02-14T15:03:06.668Z,14.45
2019-02-14T15:05:39.011Z,15.08
2019-02-14T15:08:11.436Z,9.08
2019-02-14T15:10:43.786Z,9.58
2019-02-14T15:13:16.188Z,13.05
2019-02-14T15:15:48.544Z,13.28
2019-02-14T15:18:21.088Z,12.37
2019-02-14T15:20:53.461Z,10.68
2019-02-14T15:23:25.838Z,17.25
2019-02-14T15:25:58.210Z,12.65
2019-02-14T15:28:30.584Z,11.30
2019-02-14T15:31:03.115Z,12.63
2019-02-14T15:33:37.743Z,13.05
2019-02-14T15:36:10.160Z,12.33
2019-02-14T15:38:42.916Z,11.48
2019-02-14T15:41:15.375Z,14.60
2019-02-14T15:43:47.760Z,10.20
2019-02-14T15:46:20.149Z,10.18
2019-02-14T15:48:52.564Z,10.30
2019-02-14T15:51:24.994Z,11.60
2019-02-14T15:53:57.374Z,10.32
2019-02-14T15:56:31.501Z,11.88
2019-02-14T15:59:04.408Z,20.00
2019-02-14T16:01:36.767Z,12.78
2019-02-14T16:04:09.170Z,15.90
2019-02-14T16:06:41.890Z,11.03
2019-02-14T16:09:14.835Z,14.47
2019-02-14T16:11:48.639Z,15.28
2019-02-14T16:14:21.036Z,11.80
2019-02-14T16:16:53.415Z,16.37
2019-02-14T16:19:25.743Z,10.35
2019-02-14T16:21:57.887Z,14.40
2019-02-14T16:24:32.207Z,13.38
2019-02-14T16:27:04.847Z,15.23
2019-02-14T16:29:37.218Z,13.28
2019-02-14T16:32:09.645Z,12.07
2019-02-14T16:34:42.009Z,10.40
2019-02-14T16:37:14.360Z,12.20
2019-02-14T16:39:51.785Z,9.33
2019-02-14T16:42:21.310Z,10.88
2019-02-14T16:44:54.064Z,13.25
2019-02-14T16:47:26.746Z,9.88
2019-02-14T16:49:59.161Z,8.55
2019-02-14T16:52:31.521Z,8.70
2019-02-14T16:55:03.607Z,10.40
2019-02-14T16:57:36.076Z,9.43
2019-02-14T17:00:11.136Z,5.12
2019-02-14T17:02:43.777Z,10.38
2019-02-14T17:05:16.165Z,11.70
2019-02-14T17:07:48.518Z,7.97
2019-02-14T17:10:21.374Z,11.00
2019-02-14T17:12:53.808Z,12.85
2019-02-14T17:15:26.170Z,7.80
2019-02-14T17:17:58.274Z,9.30
2019-02-14T17:20:30.349Z,12.87
2019-02-14T17:23:02.797Z,10.43
2019-02-14T17:25:35.162Z,9.95
2019-02-14T17:28:07.553Z,10.27
2019-02-14T17:30:40.340Z,8.60
2019-02-14T17:33:13.463Z,8.40
2019-02-14T17:35:45.826Z,12.63
2019-02-14T17:38:18.278Z,10.35
2019-02-14T17:40:50.929Z,19.65
2019-02-14T17:43:23.568Z,13.88
2019-02-14T17:45:55.919Z,6.97
2019-02-14T17:48:30.844Z,12.20
2019-02-14T17:51:03.560Z,8.70
2019-02-14T17:53:35.636Z,11.03
2019-02-14T17:56:08.916Z,12.23
2019-02-14T17:58:42.977Z,10.88
2019-02-14T18:01:17.499Z,10.80
2019-02-14T18:03:50.231Z,11.05
2019-02-14T18:06:22.822Z,9.97
2019-02-14T18:08:55.304Z,12.18
2019-02-14T18:11:27.811Z,10.15
2019-02-14T18:14:03.363Z,12.03
2019-02-14T18:16:38.255Z,13.95
2019-02-14T18:19:11.864Z,11.45
2019-02-14T18:24:15.683Z,9.83
2019-02-14T18:26:54.105Z,8.80
2019-02-14T18:29:27.699Z,11.03
2019-02-14T18:32:00.820Z,16.17
2019-02-14T18:34:33.297Z,11.38
2019-02-14T18:37:05.947Z,17.92
2019-02-14T18:39:38.622Z,20.32
2019-02-14T18:42:11.303Z,16.85
2019-02-14T18:44:44.160Z,17.30
2019-02-14T18:47:16.514Z,17.90
2019-02-14T18:49:48.669Z,17.73
2019-02-14T18:52:20.924Z,28.03
2019-02-14T18:54:53.351Z,21.23
2019-02-14T18:57:25.405Z,15.77
2019-02-14T18:59:57.902Z,25.57
2019-02-14T19:02:31.006Z,17.85
2019-02-14T19:05:03.118Z,20.37
2019-02-14T19:07:35.165Z,19.73
2019-02-14T19:10:08.140Z,18.67
2019-02-14T19:12:40.915Z,21.13
2019-02-14T19:15:13.791Z,19.65
2019-02-14T19:17:46.461Z,16.20
2019-02-14T19:20:19.099Z,11.83
2019-02-14T19:22:51.739Z,18.35
2019-02-14T19:25:24.643Z,18.02
2019-02-14T19:27:57.183Z,13.93
2019-02-14T19:30:29.536Z,13.15
2019-02-14T19:33:01.898Z,15.70
2019-02-14T19:35:34.288Z,14.70
2019-02-14T19:38:06.669Z,16.47
2019-02-14T19:40:39.719Z,17.52
2019-02-14T19:43:12.577Z,15.43
2019-02-14T19:45:44.882Z,14.70
2019-02-14T19:48:17.103Z,14.53
2019-02-14T19:50:49.842Z,12.98
2019-02-14T19:53:22.240Z,11.10
2019-02-14T19:55:54.450Z,12.77
2019-02-14T19:58:27.498Z,9.83
2019-02-14T20:00:59.868Z,14.25
2019-02-14T20:03:32.121Z,10.70
2019-02-14T20:06:05.018Z,9.23
2019-02-14T20:08:37.903Z,13.22
2019-02-14T20:11:11.549Z,10.78
2019-02-14T20:13:49.622Z,13.10
2019-02-14T20:16:19.366Z,11.47
2019-02-14T20:18:51.473Z,11.70
2019-02-14T20:21:23.659Z,14.03
2019-02-14T20:23:56.532Z,12.13
2019-02-14T20:26:29.064Z,14.93
2019-02-14T20:29:01.566Z,9.77
2019-02-14T20:31:34.871Z,11.12
2019-02-14T20:36:39.462Z,11.55
2019-02-14T20:39:11.664Z,9.67
2019-02-14T20:41:46.720Z,18.02
2019-02-14T20:44:19.910Z,16.17
2019-02-14T20:46:52.875Z,12.03
2019-02-14T20:49:25.347Z,12.80
2019-02-14T20:51:58.080Z,13.60
2019-02-14T20:54:31.084Z,15.50
2019-02-14T20:57:04.128Z,11.93
2019-02-14T20:59:36.929Z,10.40
2019-02-14T21:02:09.136Z,16.45
2019-02-14T21:04:41.624Z,12.93
2019-02-14T21:07:14.443Z,12.20
2019-02-14T21:09:47.351Z,10.98
2019-02-14T21:12:19.843Z,12.13
2019-02-14T21:14:52.262Z,15.55
2019-02-14T21:17:24.655Z,10.00
2019-02-14T21:19:56.831Z,12.07
2019-02-14T21:22:29.196Z,9.15
2019-02-14T21:25:01.350Z,14.70
2019-02-14T21:27:35.221Z,10.03
2019-02-14T21:30:08.322Z,12.10
2019-02-14T21:32:40.446Z,12.00
2019-02-14T21:35:12.920Z,10.30
2019-02-14T21:37:45.005Z,8.90
2019-02-14T21:40:17.248Z,12.03
2019-02-14T21:42:49.617Z,12.93
2019-02-14T21:45:22.047Z,19.17
2019-02-14T21:47:54.568Z,12.70
2019-02-14T21:50:26.994Z,13.98
2019-02-14T21:53:01.499Z,17.87
2019-02-14T21:55:33.855Z,11.50
2019-02-14T21:58:06.548Z,11.05
2019-02-14T22:00:39.362Z,14.60
2019-02-14T22:03:12.086Z,12.80
2019-02-14T22:05:44.816Z,9.95
2019-02-14T22:08:17.283Z,14.43
2019-02-14T22:10:49.781Z,15.38
2019-02-14T22:13:22.206Z,19.37
2019-02-14T22:15:54.700Z,16.20
2019-02-14T22:18:27.116Z,14.98
2019-02-14T22:20:59.604Z,10.08
2019-02-14T22:23:32.166Z,11.43
2019-02-14T22:26:04.545Z,11.30
2019-02-14T22:28:36.751Z,10.60
2019-02-14T22:31:09.237Z,10.80
2019-02-14T22:33:41.772Z,10.58
2019-02-14T22:36:14.302Z,11.28
2019-02-14T22:38:47.188Z,12.75
2019-02-14T22:41:19.595Z,12.78
2019-02-14T22:43:52.222Z,12.98
2019-02-14T22:46:24.711Z,9.55
2019-02-14T22:48:57.110Z,14.07
2019-02-14T22:51:30.173Z,8.95
2019-02-14T22:54:02.389Z,9.18
2019-02-14T22:56:35.049Z,6.15
2019-02-14T22:59:07.464Z,15.88
2019-02-14T23:01:40.998Z,8.50
2019-02-14T23:04:13.532Z,9.13
2019-02-14T23:06:47.975Z,12.70
2019-02-14T23:09:20.536Z,9.93
2019-02-14T23:11:53.212Z,15.43
2019-02-14T23:14:25.968Z,11.03
2019-02-14T23:16:58.456Z,7.08
2019-02-14T23:19:31.268Z,9.63
2019-02-14T23:22:03.725Z,9.95
2019-02-14T23:24:36.079Z,11.90
2019-02-14T23:27:09.266Z,12.40
2019-02-14T23:32:12.320Z,6.22
2019-02-14T23:34:44.857Z,7.60
2019-02-14T23:37:17.623Z,10.50
2019-02-14T23:39:50.016Z,10.63
2019-02-14T23:42:22.423Z,12.95
2019-02-14T23:44:55.058Z,6.00
2019-02-14T23:47:27.413Z,8.10
2019-02-14T23:49:59.494Z,6.83
2019-02-14T23:52:31.584Z,7.87
2019-02-14T23:55:04.063Z,7.77
2019-02-14T23:57:37.597Z,8.45
